Time;durP1;ratioP1;P1;durP2;ratioP2;P2;SDS_P1;SDS_P2;PMS_P1;PMS_P2;Temp;Humidity;BMP_temperature;BMP_pressure;BME280_temperature;BME280_humidity;BME280_pressure;Samples;Min_cycle;Max_cycle;Signal;HPM_P1;HPM_P2
2022/10/19 00:01:18;;;;;;;9.32;4.85;;;21.60;53.30;;;;;;5121045;28;20040;-38
2022/10/19 00:03:45;;;;;;;10.25;4.35;;;21.60;53.30;;;;;;5089970;28;20025;-39
2022/10/19 00:06:16;;;;;;;7.47;4.22;;;21.50;53.30;;;;;;5111731;28;20047;-38
2022/10/19 00:08:42;;;;;;;7.55;3.83;;;21.50;53.40;;;;;;5125580;28;20075;-39
2022/10/19 00:11:08;;;;;;;9.33;3.83;;;21.50;53.30;;;;;;5125321;28;20030;-37
2022/10/19 00:13:34;;;;;;;4.63;2.22;;;21.50;53.40;;;;;;5125482;28;20126;-35
2022/10/19 00:16:01;;;;;;;6.03;2.80;;;21.50;53.30;;;;;;5125890;28;20034;-36
2022/10/19 00:18:27;;;;;;;4.22;2.65;;;21.40;53.40;;;;;;5125290;28;20027;-36
2022/10/19 00:21:00;;;;;;;8.98;6.22;;;21.30;53.50;;;;;;5124602;28;20023;-36
2022/10/19 00:23:27;;;;;;;6.00;2.28;;;21.20;53.90;;;;;;5117257;28;20168;-36
2022/10/19 00:25:56;;;;;;;5.10;2.30;;;21.10;53.70;;;;;;5125501;28;20035;-36
2022/10/19 00:28:22;;;;;;;4.20;2.10;;;21.00;53.80;;;;;;5104486;28;20029;-36
2022/10/19 00:30:48;;;;;;;4.32;1.98;;;21.00;53.90;;;;;;5096165;28;20046;-36
2022/10/19 00:33:19;;;;;;;4.28;2.30;;;20.90;53.90;;;;;;5097720;28;20020;-36
2022/10/19 00:35:48;;;;;;;4.70;2.13;;;20.90;54.40;;;;;;5097719;28;20028;-36
2022/10/19 00:38:18;;;;;;;4.28;1.52;;;20.90;54.80;;;;;;5097112;28;20055;-36
2022/10/19 00:40:44;;;;;;;3.95;1.90;;;20.90;54.50;;;;;;5098734;28;20043;-36
2022/10/19 00:43:22;;;;;;;2.67;1.48;;;20.90;54.50;;;;;;5096876;28;20024;-36
2022/10/19 00:45:48;;;;;;;2.42;1.48;;;20.80;54.40;;;;;;5097350;28;20252;-36
2022/10/19 00:48:20;;;;;;;2.42;1.40;;;20.70;54.40;;;;;;5097169;28;20101;-36
2022/10/19 00:50:47;;;;;;;3.70;1.50;;;20.70;55.00;;;;;;5097425;28;20035;-36
2022/10/19 00:53:13;;;;;;;2.42;1.40;;;20.70;55.10;;;;;;5078542;28;20028;-36
2022/10/19 00:55:39;;;;;;;1.98;1.10;;;20.80;55.20;;;;;;5095626;28;20103;-36
2022/10/19 00:58:05;;;;;;;2.55;1.20;;;20.80;55.10;;;;;;5102629;28;20036;-36
2022/10/19 01:00:32;;;;;;;1.75;1.15;;;20.80;55.30;;;;;;5120463;28;20067;-36
2022/10/19 01:02:59;;;;;;;2.17;1.10;;;20.70;55.40;;;;;;5093697;28;20058;-36
2022/10/19 01:05:25;;;;;;;1.80;1.02;;;20.70;55.40;;;;;;5106050;28;20028;-36
2022/10/19 01:07:51;;;;;;;1.60;0.98;;;20.60;55.30;;;;;;5102939;28;20020;-36
2022/10/19 01:10:17;;;;;;;1.70;1.00;;;20.60;55.30;;;;;;5103513;28;20102;-36
2022/10/19 01:12:52;;;;;;;2.08;1.20;;;20.70;55.50;;;;;;5094099;28;20048;-40
2022/10/19 01:15:30;;;;;;;1.33;1.10;;;20.70;55.60;;;;;;5102081;28;20028;-35
2022/10/19 01:18:18;;;;;;;1.25;0.73;;;20.60;55.30;;;;;;5136901;27;20032;-36
2022/10/19 01:21:14;;;;;;;1.15;0.75;;;20.60;55.30;;;;;;5101671;28;20024;-35
2022/10/19 01:24:01;;;;;;;1.10;0.80;;;20.50;55.30;;;;;;5130104;27;20065;-35
2022/10/19 01:26:50;;;;;;;1.67;0.70;;;20.50;55.40;;;;;;5099882;28;20036;-37
2022/10/19 01:29:35;;;;;;;1.38;0.75;;;20.50;55.70;;;;;;5094241;28;20032;-36
2022/10/19 01:32:15;;;;;;;1.67;0.80;;;20.60;55.90;;;;;;5095659;28;20025;-36
2022/10/19 01:35:10;;;;;;;1.65;0.68;;;20.60;55.80;;;;;;5109906;28;20023;-35
2022/10/19 01:37:55;;;;;;;1.02;0.60;;;20.50;55.70;;;;;;5101284;28;20043;-36
2022/10/19 01:40:30;;;;;;;1.30;0.90;;;20.50;55.70;;;;;;5133361;27;20024;-38
2022/10/19 01:42:56;;;;;;;8.95;4.80;;;20.40;55.70;;;;;;5129633;27;20039;-35
2022/10/19 01:46:03;;;;;;;9.98;5.85;;;20.50;56.00;;;;;;5110534;28;20032;-35
2022/10/19 01:48:31;;;;;;;9.77;5.53;;;20.50;56.20;;;;;;5118495;28;20040;-36
2022/10/19 01:51:00;;;;;;;10.13;5.43;;;20.50;56.00;;;;;;5091822;28;20089;-38
2022/10/19 01:53:28;;;;;;;7.80;5.30;;;20.40;55.90;;;;;;5130922;27;20039;-36
2022/10/19 01:55:54;;;;;;;7.93;4.70;;;20.40;55.90;;;;;;5103504;28;20030;-40
2022/10/19 01:58:28;;;;;;;6.07;4.05;;;20.40;55.90;;;;;;5095080;28;20024;-40
2022/10/19 02:00:55;;;;;;;8.35;4.10;;;20.30;55.80;;;;;;5097410;28;20028;-36
2022/10/19 02:03:22;;;;;;;5.57;3.47;;;20.30;55.90;;;;;;5101419;28;20024;-37
2022/10/19 02:05:48;;;;;;;7.53;3.90;;;20.30;55.80;;;;;;5099703;28;20048;-39
2022/10/19 02:08:17;;;;;;;5.47;3.58;;;20.20;55.80;;;;;;5152168;27;20020;-41
2022/10/19 02:10:43;;;;;;;5.72;3.38;;;20.20;55.80;;;;;;5129138;28;20118;-36
2022/10/19 02:13:10;;;;;;;4.00;2.90;;;20.10;55.80;;;;;;5106451;28;20574;-39
2022/10/19 02:15:37;;;;;;;4.18;2.67;;;20.10;55.90;;;;;;5111231;28;20495;-36
2022/10/19 02:18:03;;;;;;;;;;;20.00;55.90;;;;;;5148951;27;20036;-34
2022/10/19 02:20:29;;;;;;;4.43;2.63;;;20.00;55.90;;;;;;5123699;28;19923;-35
2022/10/19 02:22:56;;;;;;;4.05;2.67;;;20.00;56.00;;;;;;5128455;28;20035;-36
2022/10/19 02:25:22;;;;;;;3.65;2.55;;;19.90;56.00;;;;;;5128741;28;20053;-34
2022/10/19 02:27:48;;;;;;;2.92;2.20;;;19.90;56.10;;;;;;5118285;28;20040;-34
2022/10/19 02:30:15;;;;;;;3.30;2.33;;;19.80;56.10;;;;;;5110760;28;20027;-33
2022/10/19 02:32:42;;;;;;;5.13;2.15;;;19.80;56.20;;;;;;5091176;28;20038;-34
2022/10/19 02:35:08;;;;;;;2.77;1.73;;;19.80;56.30;;;;;;5088360;28;20129;-36
2022/10/19 02:37:35;;;;;;;3.38;2.08;;;19.70;56.40;;;;;;5121808;27;20038;-35
2022/10/19 02:40:01;;;;;;;3.70;1.90;;;19.70;56.40;;;;;;5105667;28;20416;-36
2022/10/19 02:42:31;;;;;;;2.40;1.60;;;19.60;56.50;;;;;;5106062;28;20050;-35
2022/10/19 02:45:06;;;;;;;2.67;1.85;;;19.60;56.60;;;;;;5136014;27;20471;-35
2022/10/19 02:47:37;;;;;;;2.33;1.50;;;19.60;56.60;;;;;;5102943;28;20035;-35
2022/10/19 02:50:07;;;;;;;2.50;1.92;;;19.60;56.70;;;;;;5103336;28;20095;-34
2022/10/19 02:52:35;;;;;;;8.18;4.35;;;19.60;56.90;;;;;;5104003;28;20103;-34
2022/10/19 02:55:01;;;;;;;8.32;5.53;;;19.60;57.40;;;;;;5104404;28;20023;-34
2022/10/19 02:57:27;;;;;;;8.20;5.18;;;19.60;57.60;;;;;;5111553;28;20023;-34
2022/10/19 02:59:54;;;;;;;8.68;5.38;;;19.70;57.60;;;;;;5122260;28;20062;-34
2022/10/19 03:02:20;;;;;;;5.93;3.47;;;19.80;57.50;;;;;;5123436;28;20054;-34
2022/10/19 03:04:46;;;;;;;7.13;4.80;;;19.80;57.40;;;;;;5127954;28;20049;-34
2022/10/19 03:07:14;;;;;;;6.50;4.60;;;19.80;57.40;;;;;;5129285;28;20438;-34
2022/10/19 03:09:41;;;;;;;6.75;4.57;;;19.70;57.40;;;;;;5127537;28;20049;-34
2022/10/19 03:12:07;;;;;;;7.10;4.90;;;19.70;57.50;;;;;;5128410;28;20035;-35
2022/10/19 03:14:33;;;;;;;7.88;4.53;;;19.80;57.60;;;;;;5129692;28;20057;-34
2022/10/19 03:16:59;;;;;;;6.55;4.35;;;19.80;57.60;;;;;;5123001;27;20069;-35
2022/10/19 03:19:25;;;;;;;5.38;3.70;;;19.80;57.60;;;;;;5114547;28;20036;-35
2022/10/19 03:21:51;;;;;;;5.20;3.63;;;19.80;57.70;;;;;;5120740;28;20556;-35
2022/10/19 03:24:17;;;;;;;5.93;4.07;;;19.80;57.70;;;;;;5123842;28;20058;-36
2022/10/19 03:26:43;;;;;;;4.68;3.60;;;19.80;57.80;;;;;;5123089;28;20047;-35
2022/10/19 03:29:09;;;;;;;5.57;3.55;;;19.80;57.90;;;;;;5123556;28;20019;-35
2022/10/19 03:31:36;;;;;;;6.22;3.50;;;19.80;57.90;;;;;;5119721;28;20136;-35
2022/10/19 03:34:02;;;;;;;5.45;3.45;;;19.80;58.00;;;;;;5124862;28;20096;-35
2022/10/19 03:36:29;;;;;;;6.20;2.85;;;19.90;58.40;;;;;;5123899;28;20031;-35
2022/10/19 03:38:57;;;;;;;3.85;2.88;;;19.90;58.60;;;;;;5124044;28;20077;-34
2022/10/19 03:41:25;;;;;;;3.90;2.85;;;19.90;58.50;;;;;;5120874;28;20031;-35
2022/10/19 03:43:51;;;;;;;3.83;2.90;;;19.80;58.30;;;;;;5122891;28;20053;-36
2022/10/19 03:46:17;;;;;;;3.80;2.88;;;19.90;58.20;;;;;;5125001;28;20047;-36
2022/10/19 03:48:43;;;;;;;2.72;2.10;;;20.00;57.90;;;;;;5123965;28;20024;-36
2022/10/19 03:51:20;;;;;;;2.80;2.33;;;20.00;57.80;;;;;;5125147;28;20023;-36
2022/10/19 03:53:47;;;;;;;3.35;2.35;;;20.00;57.80;;;;;;5122128;28;20028;-35
2022/10/19 03:56:15;;;;;;;2.28;2.05;;;20.00;57.70;;;;;;5125409;28;20031;-36
2022/10/19 03:58:41;;;;;;;3.15;2.10;;;20.00;57.60;;;;;;5119198;28;20035;-33
2022/10/19 04:01:13;;;;;;;3.45;2.00;;;20.00;57.60;;;;;;5120181;28;20020;-35
2022/10/19 04:03:39;;;;;;;2.80;1.95;;;20.10;57.60;;;;;;5124118;28;20118;-34
2022/10/19 04:06:07;;;;;;;2.42;1.80;;;20.10;57.60;;;;;;5125147;28;20040;-35
2022/10/19 04:08:33;;;;;;;2.80;1.70;;;20.00;57.40;;;;;;5124902;28;20034;-34
2022/10/19 04:11:04;;;;;;;2.47;1.50;;;20.00;57.40;;;;;;5120211;28;20058;-35
2022/10/19 04:13:31;;;;;;;2.53;1.55;;;20.00;57.30;;;;;;5124947;28;20035;-35
2022/10/19 04:15:57;;;;;;;2.30;1.60;;;20.00;57.30;;;;;;5124835;28;20035;-35
2022/10/19 04:18:23;;;;;;;3.55;1.75;;;20.10;57.40;;;;;;5123640;28;20024;-34
2022/10/19 04:20:54;;;;;;;1.83;1.30;;;20.10;57.40;;;;;;5123298;28;20046;-34
2022/10/19 04:23:20;;;;;;;2.10;1.55;;;20.00;57.20;;;;;;5120187;28;20043;-33
2022/10/19 04:25:46;;;;;;;3.42;1.52;;;20.00;57.30;;;;;;5124866;28;20036;-34
2022/10/19 04:28:12;;;;;;;1.73;1.20;;;20.00;57.20;;;;;;5119224;28;20031;-34
2022/10/19 04:30:38;;;;;;;1.75;1.40;;;20.00;57.50;;;;;;5122488;28;20030;-36
2022/10/19 04:33:04;;;;;;;1.35;1.10;;;20.00;57.80;;;;;;5120280;28;20049;-35
2022/10/19 04:35:31;;;;;;;1.10;1.00;;;20.10;57.80;;;;;;5120663;28;20102;-36
2022/10/19 04:37:58;;;;;;;1.83;1.00;;;20.10;57.70;;;;;;5124334;28;20039;-33
2022/10/19 04:40:24;;;;;;;;;;;20.00;57.60;;;;;;5117346;28;20448;-34
2022/10/19 04:42:50;;;;;;;1.63;1.27;;;20.00;57.60;;;;;;5124687;27;19937;-33
2022/10/19 04:45:16;;;;;;;1.63;0.90;;;20.00;57.70;;;;;;5120143;28;20040;-33
2022/10/19 04:47:42;;;;;;;1.38;0.98;;;20.00;57.80;;;;;;5121838;28;20035;-34
2022/10/19 04:50:09;;;;;;;1.27;0.90;;;20.00;57.80;;;;;;5124242;28;20031;-34
2022/10/19 04:52:35;;;;;;;0.82;0.75;;;20.00;57.70;;;;;;5121796;28;20019;-36
2022/10/19 04:55:01;;;;;;;1.30;0.90;;;19.90;57.60;;;;;;5124114;28;20030;-34
2022/10/19 04:57:28;;;;;;;0.82;0.73;;;20.00;57.60;;;;;;5122566;28;20027;-34
2022/10/19 04:59:54;;;;;;;1.23;0.85;;;19.90;57.50;;;;;;5118939;28;20635;-36
2022/10/19 05:02:20;;;;;;;1.17;0.82;;;19.90;57.70;;;;;;5116941;28;20100;-36
2022/10/19 05:04:47;;;;;;;1.13;0.82;;;20.00;57.80;;;;;;5123918;28;20024;-36
2022/10/19 05:07:13;;;;;;;;;;;20.00;57.80;;;;;;5124022;28;20031;-34
2022/10/19 05:09:39;;;;;;;0.73;0.60;;;20.00;57.70;;;;;;5120262;28;19911;-35
2022/10/19 05:12:06;;;;;;;0.85;0.80;;;19.90;57.70;;;;;;5122049;28;20107;-34
2022/10/19 05:14:34;;;;;;;1.02;0.80;;;19.90;57.60;;;;;;5118361;28;20100;-33
2022/10/19 05:17:01;;;;;;;0.90;0.80;;;19.80;57.70;;;;;;5123605;28;20051;-33
2022/10/19 05:19:27;;;;;;;0.80;0.80;;;19.90;57.90;;;;;;5121368;28;20024;-33
2022/10/19 05:21:53;;;;;;;1.10;0.60;;;19.90;57.90;;;;;;5121737;28;20094;-36
2022/10/19 05:24:19;;;;;;;0.70;0.60;;;19.90;57.80;;;;;;5119081;28;20032;-33
2022/10/19 05:26:45;;;;;;;1.15;0.80;;;19.90;57.80;;;;;;5118139;28;20089;-34
2022/10/19 05:29:12;;;;;;;0.65;0.60;;;19.80;57.80;;;;;;5119811;28;20012;-33
2022/10/19 05:31:38;;;;;;;1.05;0.40;;;19.80;58.30;;;;;;5115714;28;20031;-34
2022/10/19 05:34:04;;;;;;;0.80;0.60;;;19.90;58.40;;;;;;5123089;28;20020;-33
2022/10/19 05:36:35;;;;;;;0.80;0.60;;;20.00;58.30;;;;;;5120872;28;20020;-34
2022/10/19 05:39:04;;;;;;;0.95;0.60;;;20.00;58.10;;;;;;5123382;28;20046;-33
2022/10/19 05:41:31;;;;;;;0.68;0.57;;;19.90;58.00;;;;;;5121773;28;20040;-34
2022/10/19 05:43:58;;;;;;;1.13;0.60;;;19.90;58.00;;;;;;5117222;28;20032;-35
2022/10/19 05:46:24;;;;;;;0.65;0.52;;;19.90;58.00;;;;;;5122861;28;20067;-34
2022/10/19 05:48:50;;;;;;;0.60;0.60;;;19.90;58.00;;;;;;5122752;28;20031;-34
2022/10/19 05:51:18;;;;;;;0.90;0.60;;;19.90;58.10;;;;;;5122928;28;20272;-34
2022/10/19 05:53:44;;;;;;;0.60;0.43;;;20.00;58.00;;;;;;5119835;28;20046;-34
2022/10/19 05:56:18;;;;;;;0.63;0.50;;;20.00;57.80;;;;;;5117849;28;20051;-35
2022/10/19 05:58:44;;;;;;;0.52;0.40;;;19.90;57.80;;;;;;5120195;28;20023;-35
2022/10/19 06:01:10;;;;;;;0.73;0.50;;;19.90;57.80;;;;;;5114843;28;20024;-36
2022/10/19 06:03:36;;;;;;;0.57;0.50;;;19.80;57.70;;;;;;5119685;28;20468;-33
2022/10/19 06:06:03;;;;;;;0.73;0.60;;;19.80;57.90;;;;;;5122530;28;20044;-35
2022/10/19 06:08:30;;;;;;;0.75;0.60;;;19.90;58.00;;;;;;5122827;28;20076;-34
2022/10/19 06:11:19;;;;;;;0.68;0.45;;;19.90;58.00;;;;;;5120989;28;20114;-34
2022/10/19 06:13:46;;;;;;;0.80;0.52;;;19.90;57.90;;;;;;5121700;28;20040;-35
2022/10/19 06:16:13;;;;;;;0.40;0.40;;;19.80;57.80;;;;;;5123371;28;20373;-34
2022/10/19 06:18:39;;;;;;;0.50;0.40;;;19.80;57.90;;;;;;5116554;28;20032;-34
2022/10/19 06:21:08;;;;;;;0.45;0.30;;;19.80;58.00;;;;;;5123550;28;20099;-34
2022/10/19 06:23:34;;;;;;;0.73;0.50;;;19.80;58.40;;;;;;5116381;28;20087;-34
2022/10/19 06:26:05;;;;;;;0.45;0.40;;;19.80;58.60;;;;;;5118696;28;20042;-34
2022/10/19 06:28:31;;;;;;;0.50;0.32;;;19.80;58.50;;;;;;5141463;27;20020;-34
2022/10/19 06:30:58;;;;;;;0.35;0.30;;;19.80;58.40;;;;;;5120082;28;20029;-34
2022/10/19 06:33:25;;;;;;;0.38;0.38;;;19.80;58.30;;;;;;5117437;28;20113;-34
2022/10/19 06:35:52;;;;;;;0.57;0.50;;;19.80;58.40;;;;;;5117622;28;20043;-34
2022/10/19 06:38:18;;;;;;;0.85;0.60;;;19.80;58.40;;;;;;5121968;28;20024;-34
2022/10/19 06:40:44;;;;;;;0.47;0.40;;;19.80;58.50;;;;;;5118566;28;20032;-33
2022/10/19 06:43:10;;;;;;;0.45;0.35;;;19.80;58.40;;;;;;5113831;28;20028;-34
2022/10/19 06:45:37;;;;;;;0.52;0.30;;;19.80;58.30;;;;;;5119464;28;20024;-34
2022/10/19 06:48:04;;;;;;;0.60;0.40;;;19.80;58.20;;;;;;5119913;28;20051;-34
2022/10/19 06:50:31;;;;;;;0.50;0.40;;;19.70;58.10;;;;;;5120806;28;20053;-34
2022/10/19 06:53:00;;;;;;;0.95;0.40;;;19.80;58.30;;;;;;5110363;28;20118;-34
2022/10/19 06:55:26;;;;;;;0.40;0.30;;;19.80;58.90;;;;;;5121655;28;20493;-34
2022/10/19 06:57:52;;;;;;;0.60;0.47;;;19.80;58.30;;;;;;5122956;28;20031;-34
2022/10/19 07:00:18;;;;;;;0.40;0.32;;;19.80;58.20;;;;;;5122317;28;20039;-34
2022/10/19 07:02:44;;;;;;;0.50;0.30;;;19.70;58.10;;;;;;5119006;28;20113;-33
2022/10/19 07:05:10;;;;;;;0.30;0.30;;;19.70;58.20;;;;;;5122624;28;20024;-34
2022/10/19 07:07:37;;;;;;;0.50;0.30;;;19.70;58.40;;;;;;5126040;28;20023;-32
2022/10/19 07:10:03;;;;;;;0.37;0.30;;;19.70;58.60;;;;;;5112939;28;20041;-33
2022/10/19 07:12:29;;;;;;;0.60;0.47;;;19.80;58.60;;;;;;5125471;28;20058;-33
2022/10/19 07:14:56;;;;;;;0.40;0.20;;;19.80;58.50;;;;;;5122994;28;20023;-34
2022/10/19 07:17:23;;;;;;;0.60;0.40;;;19.70;58.40;;;;;;5116184;28;20030;-35
2022/10/19 07:19:49;;;;;;;0.30;0.30;;;19.70;58.40;;;;;;5124340;28;20038;-33
2022/10/19 07:22:15;;;;;;;0.55;0.40;;;19.70;58.40;;;;;;5118318;28;20110;-34
2022/10/19 07:24:41;;;;;;;0.52;0.50;;;19.60;58.40;;;;;;5124506;28;20055;-34
2022/10/19 07:27:07;;;;;;;0.55;0.50;;;19.70;58.50;;;;;;5123870;28;20091;-33
2022/10/19 07:29:33;;;;;;;0.50;0.30;;;19.70;58.50;;;;;;5124244;28;20038;-33
2022/10/19 07:31:59;;;;;;;0.40;0.40;;;19.70;58.40;;;;;;5142552;27;20035;-34
2022/10/19 07:34:25;;;;;;;0.52;0.35;;;19.70;58.40;;;;;;5123232;28;20020;-33
2022/10/19 07:36:52;;;;;;;0.30;0.30;;;19.70;58.40;;;;;;5116815;28;20028;-34
2022/10/19 07:39:18;;;;;;;0.80;0.40;;;19.60;58.50;;;;;;5123582;28;20027;-34
2022/10/19 07:41:44;;;;;;;0.70;0.47;;;19.60;58.50;;;;;;5124083;28;20040;-33
2022/10/19 07:44:11;;;;;;;0.93;0.52;;;19.70;58.60;;;;;;5115030;28;20016;-34
2022/10/19 07:46:37;;;;;;;1.87;0.40;;;19.70;58.50;;;;;;5117112;28;20035;-34
2022/10/19 07:49:05;;;;;;;0.50;0.40;;;19.70;58.50;;;;;;5146348;27;20039;-33
2022/10/19 07:51:31;;;;;;;0.32;0.30;;;19.60;58.50;;;;;;5116375;28;20284;-33
2022/10/19 07:53:58;;;;;;;0.47;0.40;;;19.60;58.40;;;;;;5120270;28;20019;-32
2022/10/19 07:56:25;;;;;;;0.60;0.40;;;19.60;58.50;;;;;;5120213;28;20029;-40
2022/10/19 07:58:52;;;;;;;0.40;0.40;;;19.70;58.90;;;;;;5122786;27;20026;-40
2022/10/19 08:01:19;;;;;;;;;;;19.80;58.90;;;;;;5118681;28;20046;-43
2022/10/19 08:03:45;;;;;;;0.85;0.45;;;19.80;58.60;;;;;;5123770;28;19904;-43
2022/10/19 08:06:13;;;;;;;0.40;0.30;;;19.70;58.40;;;;;;5123598;28;20043;-41
2022/10/19 08:08:39;;;;;;;0.50;0.40;;;19.70;58.20;;;;;;5118944;28;20035;-37
2022/10/19 08:11:10;;;;;;;0.60;0.40;;;19.60;58.20;;;;;;5122658;28;20034;-34
2022/10/19 08:13:36;;;;;;;0.55;0.40;;;19.60;58.40;;;;;;5118979;28;20111;-33
2022/10/19 08:16:02;;;;;;;1.50;0.70;;;19.70;58.50;;;;;;5120577;28;20032;-33
2022/10/19 08:18:29;;;;;;;18.17;2.30;;;19.70;58.80;;;;;;5122411;28;20024;-33
2022/10/19 08:20:55;;;;;;;12.20;1.83;;;19.70;58.90;;;;;;5115232;28;20024;-34
2022/10/19 08:23:26;;;;;;;11.82;1.27;;;19.80;59.10;;;;;;5123295;28;20251;-34
2022/10/19 08:25:57;;;;;;;5.05;1.27;;;19.80;59.20;;;;;;5119667;28;20047;-33
2022/10/19 08:28:23;;;;;;;6.50;1.30;;;19.80;59.30;;;;;;5122074;28;20035;-33
2022/10/19 08:30:50;;;;;;;1.58;0.60;;;19.80;59.30;;;;;;5116843;28;20039;-33
2022/10/19 08:33:16;;;;;;;1.58;0.80;;;19.90;59.30;;;;;;5116096;28;20034;-33
2022/10/19 08:35:43;;;;;;;2.63;0.85;;;19.90;59.10;;;;;;5120420;28;21524;-33
2022/10/19 08:38:09;;;;;;;0.90;0.70;;;19.90;58.90;;;;;;5119488;28;20028;-33
2022/10/19 08:40:35;;;;;;;1.92;0.77;;;19.90;58.70;;;;;;5118501;28;20027;-32
2022/10/19 08:43:04;;;;;;;1.83;0.70;;;19.90;58.50;;;;;;5140213;27;20037;-32
2022/10/19 08:45:37;;;;;;;1.08;0.65;;;19.80;58.40;;;;;;5124789;28;20028;-33
2022/10/19 08:48:18;;;;;;;0.90;0.60;;;19.90;58.70;;;;;;5122551;28;20400;-33
2022/10/19 08:50:44;;;;;;;1.80;0.60;;;19.90;58.50;;;;;;5116268;28;20111;-33
2022/10/19 08:53:18;;;;;;;1.25;0.52;;;19.90;58.30;;;;;;5114523;28;20044;-33
2022/10/19 08:55:58;;;;;;;1.15;0.50;;;19.90;58.10;;;;;;5136568;27;20051;-33
2022/10/19 08:58:42;;;;;;;0.90;0.50;;;19.90;58.00;;;;;;5120121;28;20097;-32
2022/10/19 09:01:39;;;;;;;0.75;0.40;;;19.80;58.00;;;;;;5114756;28;20077;-36
2022/10/19 09:04:09;;;;;;;0.90;0.50;;;19.90;58.30;;;;;;5107319;27;20070;-34
2022/10/19 09:07:03;;;;;;;0.80;0.60;;;19.90;58.10;;;;;;5105795;28;20049;-33
2022/10/19 09:09:29;;;;;;;0.90;0.50;;;19.90;58.00;;;;;;5113110;28;20020;-33
2022/10/19 09:11:57;;;;;;;0.60;0.40;;;19.90;57.90;;;;;;5116865;28;20044;-33
2022/10/19 09:14:32;;;;;;;0.80;0.50;;;19.90;57.80;;;;;;5105367;28;20331;-33
2022/10/19 09:17:08;;;;;;;0.65;0.50;;;19.90;58.10;;;;;;5118294;28;20047;-34
2022/10/19 09:19:34;;;;;;;0.70;0.50;;;19.90;58.20;;;;;;5098975;28;20087;-36
2022/10/19 09:22:01;;;;;;;0.55;0.40;;;19.90;58.60;;;;;;5120440;28;20023;-33
2022/10/19 09:24:36;;;;;;;0.75;0.43;;;19.90;58.00;;;;;;5122083;28;20024;-33
2022/10/19 09:27:02;;;;;;;0.82;0.50;;;19.90;57.90;;;;;;5119129;28;20055;-37
2022/10/19 09:29:37;;;;;;;0.95;0.70;;;19.90;57.80;;;;;;5113568;28;20030;-34
2022/10/19 09:32:14;;;;;;;0.55;0.45;;;19.90;58.00;;;;;;5118208;28;20028;-33
2022/10/19 09:34:49;;;;;;;0.75;0.52;;;19.90;58.20;;;;;;5142079;27;20032;-34
2022/10/19 09:37:15;;;;;;;0.73;0.52;;;19.90;58.00;;;;;;5118353;28;20020;-32
2022/10/19 09:39:41;;;;;;;0.60;0.40;;;19.90;58.00;;;;;;5140752;27;20031;-32
2022/10/19 09:42:10;;;;;;;0.63;0.50;;;19.90;57.90;;;;;;5104685;28;20028;-33
2022/10/19 09:44:36;;;;;;;1.10;0.68;;;19.90;57.90;;;;;;5103418;28;20787;-33
2022/10/19 09:47:13;;;;;;;0.70;0.50;;;19.90;58.10;;;;;;5118461;27;20040;-33
2022/10/19 09:49:41;;;;;;;0.60;0.50;;;19.90;58.30;;;;;;5092050;28;20020;-32
2022/10/19 09:52:30;;;;;;;0.90;0.45;;;19.90;58.10;;;;;;5102976;28;20112;-32
2022/10/19 09:55:27;;;;;;;0.50;0.47;;;19.90;58.00;;;;;;5097862;28;20047;-32
2022/10/19 09:58:01;;;;;;;1.00;0.68;;;19.90;58.00;;;;;;5078179;28;20050;-33
2022/10/19 10:00:36;;;;;;;0.70;0.40;;;19.90;58.40;;;;;;5101063;28;20032;-32
2022/10/19 10:03:03;;;;;;;0.60;0.50;;;19.90;58.10;;;;;;5092045;28;20107;-33
2022/10/19 10:05:33;;;;;;;0.77;0.40;;;19.90;58.30;;;;;;5091653;28;20077;-32
2022/10/19 10:07:59;;;;;;;0.50;0.40;;;20.00;58.10;;;;;;5115401;27;20044;-32
2022/10/19 10:10:34;;;;;;;0.40;0.40;;;19.90;58.00;;;;;;5083122;28;20024;-33
2022/10/19 10:13:00;;;;;;;0.60;0.50;;;19.90;58.00;;;;;;5095956;28;20044;-33
2022/10/19 10:15:40;;;;;;;1.13;0.60;;;19.90;58.00;;;;;;5100547;28;20028;-33
2022/10/19 10:18:08;;;;;;;1.05;0.50;;;19.90;58.20;;;;;;5107019;28;20104;-38
2022/10/19 10:20:35;;;;;;;1.58;0.60;;;19.90;58.20;;;;;;5103245;28;20029;-37
2022/10/19 10:23:05;;;;;;;7.47;0.80;;;20.00;58.60;;;;;;5101340;28;20031;-37
2022/10/19 10:25:33;;;;;;;4.10;0.80;;;19.90;58.00;;;;;;5095609;28;20032;-37
2022/10/19 10:28:03;;;;;;;3.45;0.88;;;19.90;58.00;;;;;;5116765;28;20194;-37
2022/10/19 10:30:35;;;;;;;4.35;0.88;;;20.00;58.40;;;;;;5130773;27;20054;-36
2022/10/19 10:33:01;;;;;;;8.98;0.80;;;20.00;58.80;;;;;;5105568;28;20029;-36
2022/10/19 10:35:36;;;;;;;2.95;0.60;;;20.10;58.90;;;;;;5138703;27;20472;-36
2022/10/19 10:38:13;;;;;;;11.20;1.10;;;20.10;59.00;;;;;;5106989;28;20028;-36
2022/10/19 10:40:40;;;;;;;5.53;1.10;;;20.10;58.90;;;;;;5107036;28;20086;-36
2022/10/19 10:43:08;;;;;;;4.65;1.05;;;20.10;58.70;;;;;;5128514;27;20032;-35
2022/10/19 10:45:39;;;;;;;11.15;0.82;;;20.10;58.40;;;;;;5109951;27;20056;-39
2022/10/19 10:48:28;;;;;;;4.70;0.80;;;20.10;58.70;;;;;;5095372;28;20024;-42
2022/10/19 10:50:55;;;;;;;1.80;0.85;;;20.20;59.00;;;;;;5084376;28;20104;-35
2022/10/19 10:53:42;;;;;;;1.73;0.82;;;20.20;58.80;;;;;;5099310;28;20036;-35
2022/10/19 10:56:39;;;;;;;14.00;2.55;;;20.20;58.10;;;;;;5087518;28;20886;-36
2022/10/19 10:59:27;;;;;;;15.00;2.92;;;20.20;57.20;;;;;;5124463;28;20412;-36
2022/10/19 11:02:03;;;;;;;6.90;2.05;;;20.10;56.50;;;;;;5113968;28;20020;-36
2022/10/19 11:04:35;;;;;;;4.72;1.52;;;20.10;56.10;;;;;;5107003;28;20035;-35
2022/10/19 11:07:09;;;;;;;3.83;1.45;;;20.20;56.10;;;;;;5139337;27;20034;-35
2022/10/19 11:09:37;;;;;;;3.78;1.23;;;20.20;56.50;;;;;;5121732;28;20103;-35
2022/10/19 11:12:04;;;;;;;4.22;1.20;;;20.30;56.90;;;;;;5122134;28;20081;-36
2022/10/19 11:14:42;;;;;;;3.90;0.90;;;20.30;56.60;;;;;;5139148;27;20020;-35
2022/10/19 11:17:30;;;;;;;1.80;0.80;;;20.30;56.70;;;;;;5106158;28;20131;-35
2022/10/19 11:19:56;;;;;;;2.70;1.15;;;20.30;56.60;;;;;;5134349;27;20052;-35
2022/10/19 11:22:39;;;;;;;2.75;1.00;;;20.30;56.60;;;;;;5106066;28;20544;-36
2022/10/19 11:25:27;;;;;;;2.15;0.80;;;20.30;56.50;;;;;;5105024;28;20039;-36
2022/10/19 11:28:30;;;;;;;1.38;0.60;;;20.30;56.90;;;;;;5105865;28;20028;-35
2022/10/19 11:31:11;;;;;;;1.90;0.70;;;20.30;57.00;;;;;;5105043;28;20102;-36
2022/10/19 11:33:49;;;;;;;1.45;0.75;;;20.40;56.90;;;;;;5106004;28;20031;-35
2022/10/19 11:36:29;;;;;;;1.33;0.80;;;20.40;56.80;;;;;;5084458;28;20362;-35
2022/10/19 11:39:14;;;;;;;1.38;0.80;;;20.30;56.80;;;;;;5084636;28;20028;-35
2022/10/19 11:41:55;;;;;;;1.40;0.70;;;20.40;56.80;;;;;;5085096;28;20116;-35
2022/10/19 11:44:55;;;;;;;1.23;0.52;;;20.40;56.90;;;;;;5084840;28;20554;-36
2022/10/19 11:47:49;;;;;;;1.27;0.68;;;20.40;56.90;;;;;;5085306;28;20039;-36
2022/10/19 11:50:37;;;;;;;0.98;0.70;;;20.40;56.70;;;;;;5085778;28;20021;-36
2022/10/19 11:53:19;;;;;;;1.52;0.80;;;20.40;56.60;;;;;;5099682;28;20028;-35
2022/10/19 11:55:56;;;;;;;1.00;0.60;;;20.40;56.50;;;;;;5105906;28;20131;-35
2022/10/19 11:58:41;;;;;;;0.90;0.70;;;20.40;56.60;;;;;;5104248;28;20054;-36
2022/10/19 12:01:12;;;;;;;0.85;0.60;;;20.40;56.70;;;;;;5104588;28;20016;-36
2022/10/19 12:03:57;;;;;;;0.98;0.50;;;20.50;56.90;;;;;;5090464;28;20043;-35
2022/10/19 12:06:53;;;;;;;0.90;0.55;;;20.50;56.70;;;;;;5085045;28;20032;-35
2022/10/19 12:09:27;;;;;;;2.15;0.70;;;20.50;56.60;;;;;;5083621;28;20032;-35
2022/10/19 12:12:13;;;;;;;0.80;0.70;;;20.50;56.50;;;;;;5083887;28;20100;-36
2022/10/19 12:14:40;;;;;;;0.88;0.60;;;20.40;56.20;;;;;;5084192;28;20090;-35
2022/10/19 12:17:09;;;;;;;1.02;0.60;;;20.40;56.20;;;;;;5083379;28;20024;-36
2022/10/19 12:19:41;;;;;;;1.00;0.70;;;20.40;56.20;;;;;;5085135;28;20024;-35
2022/10/19 12:22:12;;;;;;;1.10;0.80;;;20.30;56.10;;;;;;5086423;28;20027;-35
2022/10/19 12:24:38;;;;;;;1.02;0.73;;;20.30;56.10;;;;;;5120471;28;20032;-35
2022/10/19 12:27:05;;;;;;;1.23;0.70;;;20.30;56.10;;;;;;5104650;28;20043;-36
2022/10/19 12:29:36;;;;;;;0.85;0.70;;;20.20;56.10;;;;;;5105103;28;20069;-35
2022/10/19 12:32:02;;;;;;;1.30;0.80;;;20.20;56.00;;;;;;5100738;28;20443;-35
2022/10/19 12:34:44;;;;;;;2.33;0.77;;;20.20;56.10;;;;;;5083298;28;20050;-35
2022/10/19 12:37:30;;;;;;;1.02;0.68;;;20.10;56.00;;;;;;5084677;28;20020;-35
2022/10/19 12:40:20;;;;;;;0.90;0.80;;;20.10;56.00;;;;;;5083508;28;20025;-35
2022/10/19 12:42:52;;;;;;;0.65;0.60;;;20.00;56.10;;;;;;5077904;28;20506;-35
2022/10/19 12:45:29;;;;;;;1.23;0.80;;;20.00;56.10;;;;;;5084441;28;20047;-36
2022/10/19 12:48:07;;;;;;;0.90;0.70;;;19.90;56.10;;;;;;5083115;28;20029;-37
2022/10/19 12:50:49;;;;;;;1.27;0.82;;;19.90;56.10;;;;;;5084577;28;20035;-35
2022/10/19 12:53:26;;;;;;;0.90;0.70;;;19.80;56.00;;;;;;5095520;28;20027;-36
2022/10/19 12:56:24;;;;;;;0.87;0.70;;;19.80;56.20;;;;;;5103680;28;20024;-36
2022/10/19 12:58:58;;;;;;;1.67;1.00;;;19.80;56.10;;;;;;5080306;28;20032;-36
2022/10/19 13:01:25;;;;;;;1.00;0.80;;;19.70;56.30;;;;;;5122246;27;20024;-36
2022/10/19 13:04:11;;;;;;;;;;;19.70;56.20;;;;;;5087913;28;20084;-36
2022/10/19 13:06:55;;;;;;;1.02;0.75;;;19.70;56.20;;;;;;5100766;28;19912;-36